Time;durP1;ratioP1;P1;durP2;ratioP2;P2;SDS_P1;SDS_P2;PMS_P1;PMS_P2;Temp;Humidity;BMP_temperature;BMP_pressure;BME280_temperature;BME280_humidity;BME280_pressure;Samples;Min_cycle;Max_cycle;Signal;HPM_P1;HPM_P2
2022/12/18 00:01:28;;;;;;;155.93;52.22;;;;;;;-3.85;100.00;102665.72;5054658;28;20430;-61
2022/12/18 00:03:55;;;;;;;168.02;54.38;;;;;;;-3.88;100.00;102657.00;5024912;28;20116;-61
2022/12/18 00:06:21;;;;;;;150.63;53.10;;;;;;;-3.81;100.00;102651.34;5045563;28;20471;-63
2022/12/18 00:08:47;;;;;;;158.32;53.25;;;;;;;-3.91;100.00;102651.66;5036206;28;20453;-61
2022/12/18 00:11:18;;;;;;;148.38;51.42;;;;;;;-3.83;100.00;102651.28;5054829;28;20087;-61
2022/12/18 00:13:43;;;;;;;155.82;50.00;;;;;;;-3.85;100.00;102647.72;5020720;28;20101;-59
2022/12/18 00:16:11;;;;;;;157.57;50.63;;;;;;;-3.82;100.00;102652.19;5054206;28;20384;-59
2022/12/18 00:18:37;;;;;;;161.20;53.58;;;;;;;-3.85;100.00;102644.28;5036200;28;20037;-59
2022/12/18 00:21:04;;;;;;;157.93;49.70;;;;;;;-3.86;100.00;102643.41;5053687;28;20087;-61
2022/12/18 00:23:32;;;;;;;156.60;51.85;;;;;;;-3.97;100.00;102629.94;5051932;28;20037;-60
2022/12/18 00:26:03;;;;;;;151.23;51.03;;;;;;;-3.84;100.00;102652.06;5045712;28;20041;-60
2022/12/18 00:28:29;;;;;;;144.07;49.03;;;;;;;-3.89;100.00;102644.91;5033861;28;20041;-62
2022/12/18 00:31:05;;;;;;;157.65;49.55;;;;;;;-4.41;100.00;102552.06;5034057;28;20033;-61
2022/12/18 00:33:30;;;;;;;142.98;48.85;;;;;;;-3.92;100.00;102643.06;5015822;28;20030;-61
2022/12/18 00:36:17;;;;;;;146.77;47.17;;;;;;;-3.99;100.00;102649.56;5015357;28;20033;-60
2022/12/18 00:38:43;;;;;;;150.55;48.85;;;;;;;-3.94;100.00;102647.22;5034055;28;20036;-62
2022/12/18 00:41:09;;;;;;;141.75;47.70;;;;;;;-4.03;100.00;102623.59;5000141;28;20400;-60
2022/12/18 00:43:36;;;;;;;152.13;49.05;;;;;;;-4.40;100.00;102569.25;5034271;28;20139;-60
2022/12/18 00:46:02;;;;;;;159.65;51.10;;;;;;;-4.07;100.00;102624.22;5016760;28;20076;-61
2022/12/18 00:48:27;;;;;;;159.77;50.83;;;;;;;-4.06;100.00;102628.56;5041642;28;20064;-61
2022/12/18 00:50:52;;;;;;;163.88;50.80;;;;;;;-4.04;100.00;102651.00;5042202;28;20025;-60
2022/12/18 00:53:18;;;;;;;171.07;52.15;;;;;;;-4.04;100.00;102655.25;5048389;28;20029;-61
2022/12/18 00:55:44;;;;;;;158.18;48.90;;;;;;;-3.99;100.00;102644.41;5029347;28;20483;-59
2022/12/18 00:58:10;;;;;;;162.95;52.85;;;;;;;-4.00;100.00;102652.91;5038210;28;20042;-61
2022/12/18 01:00:36;;;;;;;177.30;52.88;;;;;;;-4.46;100.00;102560.31;5036845;28;20025;-61
2022/12/18 01:03:01;;;;;;;169.00;53.10;;;;;;;-4.33;100.00;102591.03;5053375;28;20040;-60
2022/12/18 01:05:27;;;;;;;152.80;52.03;;;;;;;-3.95;100.00;102670.28;5030264;28;20079;-60
2022/12/18 01:07:52;;;;;;;148.43;51.78;;;;;;;-4.08;100.00;102640.44;5047341;28;20123;-60
2022/12/18 01:10:17;;;;;;;163.38;51.25;;;;;;;-3.95;100.00;102660.00;5034815;28;20389;-61
2022/12/18 01:12:43;;;;;;;181.65;53.33;;;;;;;-4.09;100.00;102639.56;5033217;28;20025;-62
2022/12/18 01:15:09;;;;;;;187.50;55.08;;;;;;;-3.95;100.00;102678.00;5033577;28;20122;-63
2022/12/18 01:17:34;;;;;;;210.82;52.88;;;;;;;-4.00;100.00;102659.78;5016106;28;20072;-61
2022/12/18 01:20:00;;;;;;;166.27;51.08;;;;;;;-3.96;100.00;102664.25;5014848;28;20069;-61
2022/12/18 01:22:25;;;;;;;188.20;52.58;;;;;;;-4.52;100.00;102567.72;5033895;28;20030;-61
2022/12/18 01:24:51;;;;;;;180.60;52.92;;;;;;;-3.95;100.00;102672.88;5016058;28;20041;-59
2022/12/18 01:27:16;;;;;;;176.68;50.42;;;;;;;-3.97;100.00;102672.81;5032958;28;20096;-59
2022/12/18 01:29:42;;;;;;;169.95;48.97;;;;;;;-3.94;100.00;102674.66;5033903;28;20033;-60
2022/12/18 01:32:07;;;;;;;192.20;52.75;;;;;;;-4.47;100.00;102579.13;5033715;28;20485;-61
2022/12/18 01:34:34;;;;;;;177.20;53.30;;;;;;;-4.33;100.00;102615.06;5015784;28;20393;-63
2022/12/18 01:37:02;;;;;;;169.45;49.92;;;;;;;-4.57;100.00;102576.03;5033452;28;20033;-59
2022/12/18 01:39:28;;;;;;;161.07;51.17;;;;;;;-4.05;100.00;102663.75;5033526;28;20053;-60
2022/12/18 01:42:02;;;;;;;170.82;51.22;;;;;;;-4.09;100.00;102662.72;5033316;28;20057;-61
2022/12/18 01:44:46;;;;;;;140.63;48.95;;;;;;;-4.10;100.00;102681.50;5016760;28;20172;-62
2022/12/18 01:47:45;;;;;;;215.77;51.15;;;;;;;-4.13;100.00;102681.34;5015132;28;20049;-61
2022/12/18 01:50:20;;;;;;;156.43;48.28;;;;;;;-4.68;100.00;102584.81;5014988;28;20421;-60
2022/12/18 01:53:05;;;;;;;190.10;49.88;;;;;;;-4.13;100.00;102704.47;5033284;28;20037;-61
2022/12/18 01:55:36;;;;;;;161.85;49.90;;;;;;;-4.17;100.00;102699.06;5032602;28;20044;-61
2022/12/18 01:58:02;;;;;;;158.32;48.80;;;;;;;-4.17;100.00;102684.53;5033272;28;20124;-59
2022/12/18 02:00:28;;;;;;;152.38;48.20;;;;;;;-4.17;100.00;102693.91;4998702;28;20112;-60
2022/12/18 02:02:53;;;;;;;191.50;50.63;;;;;;;-4.17;100.00;102696.50;5032966;28;20041;-61
2022/12/18 02:05:27;;;;;;;171.45;49.58;;;;;;;-4.19;100.00;102705.81;5032566;28;20045;-60
2022/12/18 02:08:31;;;;;;;159.02;48.53;;;;;;;-4.15;100.00;102712.91;5015556;28;20029;-59
2022/12/18 02:11:07;;;;;;;164.65;46.28;;;;;;;-4.20;100.00;102704.94;5019390;28;20042;-60
2022/12/18 02:13:38;;;;;;;158.90;49.08;;;;;;;-4.19;100.00;102710.97;5015367;28;20048;-60
2022/12/18 02:16:21;;;;;;;157.55;46.25;;;;;;;-4.77;100.00;102607.41;5032992;28;20053;-63
2022/12/18 02:18:53;;;;;;;178.27;49.42;;;;;;;-4.73;100.00;102608.50;5015202;28;20033;-60
2022/12/18 02:21:40;;;;;;;203.38;50.67;;;;;;;-4.24;100.00;102712.38;5014989;28;20380;-61
2022/12/18 02:24:06;;;;;;;176.05;48.03;;;;;;;-4.23;100.00;102696.19;5015144;28;20044;-60
2022/12/18 02:26:37;;;;;;;159.55;47.70;;;;;;;-4.24;100.00;102704.69;5032353;28;20443;-61
2022/12/18 02:29:18;;;;;;;163.35;47.95;;;;;;;-4.26;100.00;102690.88;5014971;28;20056;-60
2022/12/18 02:31:52;;;;;;;157.32;45.85;;;;;;;-4.30;100.00;102684.66;5032520;28;20021;-61
2022/12/18 02:34:18;;;;;;;119.15;40.85;;;;;;;-4.80;100.00;102601.22;5014928;28;20038;-60
2022/12/18 02:36:44;;;;;;;133.55;45.90;;;;;;;-4.45;100.00;102663.22;5014764;28;20040;-61
2022/12/18 02:39:11;;;;;;;152.15;45.15;;;;;;;-4.33;100.00;102693.88;5014691;28;20030;-60
2022/12/18 02:41:38;;;;;;;145.20;43.28;;;;;;;-4.38;100.00;102674.75;4998175;28;20033;-60
2022/12/18 02:44:11;;;;;;;123.53;41.38;;;;;;;-4.42;100.00;102660.81;5014656;28;20038;-61
2022/12/18 02:46:43;;;;;;;135.45;43.75;;;;;;;-4.43;100.00;102655.56;5031931;28;20052;-59
2022/12/18 02:49:35;;;;;;;169.73;45.58;;;;;;;-4.53;100.00;102641.34;5014745;28;20034;-59
2022/12/18 02:52:15;;;;;;;162.88;41.70;;;;;;;-4.53;100.00;102656.75;4998139;28;20017;-59
2022/12/18 02:54:59;;;;;;;150.80;41.58;;;;;;;-4.53;100.00;102645.59;5031531;28;20468;-60
2022/12/18 02:57:42;;;;;;;124.18;41.03;;;;;;;-4.62;100.00;102659.69;5032046;28;20468;-60
2022/12/18 03:00:12;;;;;;;160.30;42.25;;;;;;;-4.61;100.00;102646.03;5032169;28;20029;-61
2022/12/18 03:02:46;;;;;;;133.82;42.42;;;;;;;-4.75;100.00;102628.03;5014413;28;20412;-62
2022/12/18 03:05:22;;;;;;;147.27;44.30;;;;;;;-4.67;100.00;102637.09;5014466;28;20037;-62
2022/12/18 03:07:53;;;;;;;116.25;39.90;;;;;;;-4.66;100.00;102638.84;5032143;28;20041;-61
2022/12/18 03:10:24;;;;;;;145.90;42.83;;;;;;;-4.67;100.00;102635.38;5014203;28;20495;-60
2022/12/18 03:12:53;;;;;;;;;;;;;;;-4.66;100.00;102634.59;5014226;28;20415;-59
2022/12/18 03:15:26;;;;;;;125.82;40.22;;;;;;;-4.68;100.00;102640.47;5013960;28;19924;-62
2022/12/18 03:17:56;;;;;;;124.13;40.20;;;;;;;-4.74;100.00;102627.25;4997843;28;20397;-60
2022/12/18 03:20:22;;;;;;;135.13;40.35;;;;;;;-4.80;100.00;102626.91;5013430;28;20063;-59
2022/12/18 03:22:52;;;;;;;132.73;42.85;;;;;;;-5.16;100.00;102587.13;4981543;28;20049;-60
2022/12/18 03:25:18;;;;;;;116.28;42.47;;;;;;;-4.79;100.00;102642.41;5031615;28;20037;-60
2022/12/18 03:27:49;;;;;;;116.68;39.88;;;;;;;-5.44;100.00;102535.88;5014100;28;20037;-61
2022/12/18 03:30:15;;;;;;;158.32;43.97;;;;;;;-4.92;100.00;102657.91;5013559;28;20560;-61
2022/12/18 03:32:48;;;;;;;132.57;40.35;;;;;;;-4.97;100.00;102643.91;5014035;28;20026;-60
2022/12/18 03:35:18;;;;;;;129.43;41.63;;;;;;;-5.41;100.00;102563.38;5014114;28;20099;-61
2022/12/18 03:37:43;;;;;;;128.13;41.10;;;;;;;-5.00;100.00;102638.59;4997697;28;20033;-59
2022/12/18 03:40:09;;;;;;;140.93;42.65;;;;;;;-5.13;100.00;102621.56;5013674;28;20480;-60
2022/12/18 03:42:51;;;;;;;131.68;43.20;;;;;;;-5.50;100.00;102542.31;5013739;28;20026;-60
2022/12/18 03:45:23;;;;;;;119.13;40.63;;;;;;;-5.52;100.00;102531.97;5031317;28;20060;-60
2022/12/18 03:47:55;;;;;;;123.07;43.10;;;;;;;-5.03;100.00;102640.09;4997468;28;20124;-61
2022/12/18 03:50:33;;;;;;;117.32;40.40;;;;;;;-5.05;100.00;102619.47;5031491;28;20471;-61
2022/12/18 03:53:08;;;;;;;123.18;41.72;;;;;;;-5.56;100.00;102524.00;4997549;28;20032;-61
2022/12/18 03:55:34;;;;;;;140.75;43.30;;;;;;;-5.52;100.00;102531.09;5031497;28;20037;-60
2022/12/18 03:58:01;;;;;;;140.07;42.55;;;;;;;-5.08;100.00;102618.41;5014039;28;20040;-60
2022/12/18 04:00:28;;;;;;;156.60;45.40;;;;;;;-5.10;100.00;102626.00;5031403;28;20061;-59
2022/12/18 04:02:55;;;;;;;129.57;43.10;;;;;;;-5.17;100.00;102608.47;5013423;28;20053;-60
2022/12/18 04:05:22;;;;;;;128.35;41.58;;;;;;;-5.39;100.00;102572.06;5013610;28;20396;-60
2022/12/18 04:07:49;;;;;;;126.90;41.63;;;;;;;-5.28;100.00;102597.56;5013403;28;20036;-61
2022/12/18 04:10:16;;;;;;;122.35;42.20;;;;;;;-5.21;100.00;102633.06;5014046;28;20037;-60
2022/12/18 04:12:41;;;;;;;114.22;41.88;;;;;;;-5.24;100.00;102617.50;5013749;28;20069;-58
2022/12/18 04:15:07;;;;;;;121.05;41.15;;;;;;;-5.31;100.00;102614.47;4997576;28;20109;-60
2022/12/18 04:17:33;;;;;;;115.13;43.00;;;;;;;-5.29;100.00;102618.00;5013667;28;20056;-61
2022/12/18 04:19:58;;;;;;;111.20;42.90;;;;;;;-5.31;100.00;102622.19;5013629;28;20130;-61
2022/12/18 04:22:23;;;;;;;105.43;41.47;;;;;;;-5.33;100.00;102632.34;5031100;28;20065;-60
2022/12/18 04:24:48;;;;;;;102.22;38.72;;;;;;;-5.87;100.00;102540.16;5031453;28;20033;-59
2022/12/18 04:27:14;;;;;;;105.78;40.88;;;;;;;-5.37;100.00;102644.91;5031302;28;20080;-60
2022/12/18 04:29:39;;;;;;;118.13;41.83;;;;;;;-5.42;100.00;102631.78;5014004;28;20113;-60
2022/12/18 04:32:05;;;;;;;104.80;40.47;;;;;;;-5.38;100.00;102649.16;5015605;28;20029;-60
2022/12/18 04:34:30;;;;;;;102.00;38.08;;;;;;;-5.49;100.00;102616.81;5034816;28;20040;-61
2022/12/18 04:36:56;;;;;;;102.28;39.33;;;;;;;-5.39;100.00;102646.47;5034723;28;20064;-58
2022/12/18 04:39:21;;;;;;;107.50;39.80;;;;;;;-6.05;100.00;102525.34;5017205;28;20037;-60
2022/12/18 04:41:46;;;;;;;112.95;40.50;;;;;;;-5.58;100.00;102612.81;5034456;28;20076;-59
2022/12/18 04:44:12;;;;;;;135.00;40.40;;;;;;;-5.51;100.00;102644.06;5034660;28;20125;-60
2022/12/18 04:46:37;;;;;;;117.68;42.00;;;;;;;-5.55;100.00;102641.22;5034378;28;20064;-60
2022/12/18 04:49:02;;;;;;;123.63;41.97;;;;;;;-5.69;100.00;102632.66;5033939;28;20095;-59
2022/12/18 04:51:28;;;;;;;113.40;41.72;;;;;;;-5.60;100.00;102635.78;5034673;28;20041;-61
2022/12/18 04:53:53;;;;;;;111.93;40.70;;;;;;;-5.98;100.00;102563.38;5033189;28;20030;-60
2022/12/18 04:56:19;;;;;;;114.75;39.97;;;;;;;-5.81;100.00;102599.44;5034365;28;20057;-61
2022/12/18 04:58:44;;;;;;;101.88;39.63;;;;;;;-6.27;100.00;102544.50;5016576;28;20150;-60
2022/12/18 05:01:12;;;;;;;132.43;41.60;;;;;;;-6.21;100.00;102561.03;5044820;28;20025;-60
2022/12/18 05:03:37;;;;;;;102.03;40.70;;;;;;;-6.36;100.00;102538.81;5035349;28;20036;-60
2022/12/18 05:06:04;;;;;;;95.97;39.88;;;;;;;-6.07;100.00;102602.13;5053388;28;20044;-60
2022/12/18 05:08:29;;;;;;;102.07;39.55;;;;;;;-5.92;100.00;102626.16;5036141;28;20029;-60
2022/12/18 05:11:08;;;;;;;99.60;39.17;;;;;;;-5.96;100.00;102619.09;5052759;28;20033;-61
2022/12/18 05:13:35;;;;;;;91.68;37.63;;;;;;;-6.46;100.00;102543.28;5053988;28;20530;-62
2022/12/18 05:16:00;;;;;;;97.18;38.13;;;;;;;-6.15;100.00;102605.88;5035336;28;20055;-61
2022/12/18 05:18:26;;;;;;;92.88;36.67;;;;;;;-6.03;100.00;102640.00;5053489;28;20392;-59
2022/12/18 05:20:52;;;;;;;90.20;38.08;;;;;;;-6.10;100.00;102629.25;5053539;28;20136;-60
2022/12/18 05:23:18;;;;;;;96.40;37.85;;;;;;;-6.45;100.00;102574.09;5054037;28;20043;-61
2022/12/18 05:25:50;;;;;;;89.93;37.25;;;;;;;-6.14;100.00;102624.72;5053670;28;20372;-61
2022/12/18 05:28:16;;;;;;;91.85;38.15;;;;;;;-6.61;100.00;102544.84;5053572;28;20061;-61
2022/12/18 05:30:41;;;;;;;89.68;38.05;;;;;;;-6.20;100.00;102614.09;5035763;28;20059;-65
2022/12/18 05:33:06;;;;;;;89.55;37.60;;;;;;;-6.28;100.00;102621.31;5053447;28;20060;-60
2022/12/18 05:35:32;;;;;;;84.85;37.90;;;;;;;-6.33;100.00;102625.22;5053594;28;20486;-61
2022/12/18 05:37:57;;;;;;;94.95;37.35;;;;;;;-6.39;100.00;102618.03;5053635;28;20037;-59
2022/12/18 05:40:22;;;;;;;93.25;36.90;;;;;;;-6.78;100.00;102548.91;5053074;28;20043;-58
2022/12/18 05:42:47;;;;;;;87.07;36.40;;;;;;;-6.64;100.00;102575.41;5052605;28;20125;-58
2022/12/18 05:45:13;;;;;;;100.43;38.90;;;;;;;-6.57;100.00;102596.41;5002788;28;20041;-59
2022/12/18 05:47:38;;;;;;;96.28;39.33;;;;;;;-6.55;100.00;102605.06;5053224;28;20393;-59
2022/12/18 05:50:04;;;;;;;87.95;36.88;;;;;;;-6.63;100.00;102587.41;5053301;28;20116;-59
2022/12/18 05:52:30;;;;;;;85.72;37.33;;;;;;;-6.64;100.00;102594.22;5053328;28;20082;-59
2022/12/18 05:54:55;;;;;;;85.82;36.05;;;;;;;-6.64;100.00;102598.44;5053000;28;20044;-59
2022/12/18 05:57:21;;;;;;;91.15;36.92;;;;;;;-6.65;100.00;102612.03;5052681;28;20068;-60
2022/12/18 05:59:46;;;;;;;88.13;38.42;;;;;;;-6.74;100.00;102606.34;5053125;28;20059;-59
2022/12/18 06:02:11;;;;;;;86.78;37.20;;;;;;;-6.74;100.00;102608.91;5034921;28;20037;-59
2022/12/18 06:04:37;;;;;;;97.07;37.53;;;;;;;-6.91;100.00;102585.63;5052720;28;20419;-62
2022/12/18 06:07:03;;;;;;;86.10;35.03;;;;;;;-6.79;100.00;102605.13;5035098;28;20036;-60
2022/12/18 06:09:29;;;;;;;90.18;38.45;;;;;;;-7.36;100.00;102498.19;5052920;28;20029;-61
2022/12/18 06:11:54;;;;;;;90.75;37.45;;;;;;;-7.27;100.00;102503.00;5034701;28;20031;-59
2022/12/18 06:14:19;;;;;;;91.65;37.83;;;;;;;-6.81;100.00;102568.31;5052435;28;20037;-58
2022/12/18 06:16:45;;;;;;;88.82;37.42;;;;;;;-6.65;100.00;102589.88;5052729;28;20060;-60
2022/12/18 06:19:14;;;;;;;85.90;36.15;;;;;;;-6.99;100.00;102521.94;5052581;28;20037;-60
2022/12/18 06:21:39;;;;;;;81.40;35.35;;;;;;;-6.69;100.00;102563.97;5052186;28;20025;-59
2022/12/18 06:24:08;;;;;;;85.80;35.67;;;;;;;-6.70;100.00;102560.53;5052517;28;20033;-60
2022/12/18 06:26:34;;;;;;;83.45;35.92;;;;;;;-6.61;100.00;102578.16;5018258;28;20433;-58
2022/12/18 06:29:11;;;;;;;82.28;35.83;;;;;;;-6.58;100.00;102586.03;5035183;28;20111;-60
2022/12/18 06:31:36;;;;;;;89.13;35.80;;;;;;;-6.56;100.00;102587.00;5053427;28;20033;-61
2022/12/18 06:34:03;;;;;;;81.70;34.55;;;;;;;-7.01;100.00;102500.47;5052711;28;20032;-59
2022/12/18 06:36:28;;;;;;;78.97;34.75;;;;;;;-7.20;100.00;102466.78;5053528;28;20033;-62
2022/12/18 06:38:54;;;;;;;79.28;34.42;;;;;;;-6.66;100.00;102566.75;5053372;28;20083;-62
2022/12/18 06:41:20;;;;;;;77.05;34.92;;;;;;;-6.68;100.00;102564.06;5034651;28;20102;-62
2022/12/18 06:43:58;;;;;;;84.05;35.70;;;;;;;-6.69;100.00;102564.88;5034478;28;20184;-59
2022/12/18 06:46:24;;;;;;;77.32;34.45;;;;;;;-7.22;100.00;102455.59;5018818;28;20406;-61
2022/12/18 06:48:50;;;;;;;79.78;35.25;;;;;;;-6.66;100.00;102553.94;5052326;28;20032;-60
2022/12/18 06:51:20;;;;;;;76.53;33.28;;;;;;;-6.66;100.00;102549.69;5052420;28;20503;-61
2022/12/18 06:53:45;;;;;;;66.03;32.28;;;;;;;-6.65;100.00;102555.69;5051455;28;20041;-61
2022/12/18 06:56:10;;;;;;;74.53;32.53;;;;;;;-7.18;100.00;102443.06;5034406;28;20047;-60
2022/12/18 06:58:36;;;;;;;66.55;31.02;;;;;;;-7.11;100.00;102446.91;5051831;28;20037;-58
2022/12/18 07:01:04;;;;;;;71.75;31.88;;;;;;;-7.09;100.00;102443.66;5051565;28;20086;-60
2022/12/18 07:03:29;;;;;;;65.15;30.98;;;;;;;-6.73;100.00;102511.69;5051810;28;20043;-59
2022/12/18 07:05:54;;;;;;;63.40;29.52;;;;;;;-6.57;100.00;102527.25;5033856;28;20116;-60
2022/12/18 07:08:20;;;;;;;70.35;30.95;;;;;;;-6.68;100.00;102510.28;5051886;28;20037;-59
2022/12/18 07:10:45;;;;;;;65.35;29.48;;;;;;;-7.05;100.00;102445.63;5051884;28;20043;-61
2022/12/18 07:13:11;;;;;;;58.83;27.65;;;;;;;-6.59;100.00;102528.78;5051628;28;20032;-61
2022/12/18 07:15:36;;;;;;;58.55;29.05;;;;;;;-6.76;100.00;102475.63;5051604;28;20079;-61
2022/12/18 07:18:02;;;;;;;64.75;28.90;;;;;;;-6.54;100.00;102504.38;5052637;28;20033;-60
2022/12/18 07:20:29;;;;;;;58.40;29.42;;;;;;;-6.59;100.00;102486.91;5034794;28;20044;-61
2022/12/18 07:22:55;;;;;;;60.55;29.85;;;;;;;-6.54;100.00;102483.88;5033820;28;20037;-58
2022/12/18 07:25:21;;;;;;;64.03;27.50;;;;;;;-6.52;100.00;102476.28;5051669;28;20491;-60
2022/12/18 07:27:46;;;;;;;57.08;28.25;;;;;;;-6.55;100.00;102470.97;5051660;28;20115;-61
2022/12/18 07:30:11;;;;;;;59.97;27.50;;;;;;;-6.55;100.00;102461.63;5051781;28;20033;-60
2022/12/18 07:32:37;;;;;;;53.28;29.05;;;;;;;-6.67;100.00;102432.69;5051685;28;20064;-59
2022/12/18 07:35:03;;;;;;;46.55;26.63;;;;;;;-6.55;100.00;102446.25;5033713;28;20026;-60
2022/12/18 07:37:28;;;;;;;54.97;27.60;;;;;;;-7.12;100.00;102345.38;5017005;28;20033;-59
2022/12/18 07:39:53;;;;;;;49.05;25.83;;;;;;;-6.46;100.00;102461.28;5033742;28;20401;-61
2022/12/18 07:42:31;;;;;;;51.55;26.83;;;;;;;-6.43;100.00;102459.81;5051505;28;20056;-61
2022/12/18 07:45:00;;;;;;;50.00;26.48;;;;;;;-6.60;100.00;102441.63;5051176;28;20439;-60
2022/12/18 07:47:25;;;;;;;52.97;26.95;;;;;;;-7.01;100.00;102375.97;5051598;28;20037;-60
2022/12/18 07:49:51;;;;;;;52.75;25.60;;;;;;;-6.46;100.00;102468.97;5051769;28;20437;-60
2022/12/18 07:52:16;;;;;;;49.38;25.40;;;;;;;-6.47;100.00;102473.22;5051484;28;20496;-60
2022/12/18 07:54:41;;;;;;;49.20;24.15;;;;;;;-6.87;100.00;102395.59;5033438;28;20166;-60
2022/12/18 07:57:07;;;;;;;46.13;24.83;;;;;;;-6.73;100.00;102416.94;5051480;28;20131;-58
2022/12/18 07:59:33;;;;;;;54.72;27.75;;;;;;;-6.45;100.00;102478.44;5033876;28;20037;-60
2022/12/18 08:01:58;;;;;;;40.60;22.00;;;;;;;-6.70;100.00;102416.22;5051191;28;20128;-60
2022/12/18 08:04:24;;;;;;;49.13;24.35;;;;;;;-7.02;100.00;102369.06;5033507;28;20029;-59
2022/12/18 08:06:49;;;;;;;41.55;22.92;;;;;;;-6.43;100.00;102470.06;5037002;28;20033;-61
2022/12/18 08:09:14;;;;;;;44.72;24.90;;;;;;;-6.42;100.00;102466.69;5055085;28;20115;-62
2022/12/18 08:11:40;;;;;;;47.53;23.17;;;;;;;-6.52;100.00;102436.19;5055166;28;20059;-61
2022/12/18 08:14:05;;;;;;;39.90;23.23;;;;;;;-6.48;100.00;102448.38;5037224;28;20376;-60
2022/12/18 08:16:30;;;;;;;40.95;22.70;;;;;;;-6.41;100.00;102460.78;5055832;28;20098;-60
2022/12/18 08:18:56;;;;;;;39.33;21.85;;;;;;;-6.81;100.00;102381.41;5056274;28;20069;-61
2022/12/18 08:21:27;;;;;;;40.65;22.15;;;;;;;-6.47;100.00;102432.22;5054887;28;20158;-60
2022/12/18 08:23:53;;;;;;;;;;;;;;;-6.32;100.00;102448.53;5055168;28;20033;-61
2022/12/18 08:26:18;;;;;;;39.88;21.55;;;;;;;-6.97;100.00;102329.25;5054526;28;20011;-60
2022/12/18 08:28:44;;;;;;;41.25;21.90;;;;;;;-6.29;100.00;102464.09;5054786;28;20031;-60
2022/12/18 08:31:09;;;;;;;39.45;22.35;;;;;;;-6.35;100.00;102443.22;5054786;28;20078;-61
2022/12/18 08:33:36;;;;;;;41.03;23.40;;;;;;;-6.28;100.00;102447.06;5055187;28;20363;-61
2022/12/18 08:36:03;;;;;;;38.70;22.33;;;;;;;-6.28;100.00;102459.88;5036811;28;20045;-60
2022/12/18 08:38:28;;;;;;;38.40;21.63;;;;;;;-6.76;100.00;102367.19;5036194;28;20029;-60
2022/12/18 08:40:59;;;;;;;38.78;22.85;;;;;;;-6.56;100.00;102394.91;5036565;28;20106;-59
2022/12/18 08:46:08;;;;;;;36.67;21.88;;;;;;;-6.36;100.00;102448.25;5054257;28;20055;-60
2022/12/18 08:48:33;;;;;;;35.22;21.88;;;;;;;-6.07;100.00;102497.03;5036459;28;20478;-61
2022/12/18 08:50:59;;;;;;;39.22;21.83;;;;;;;-6.30;100.00;102454.63;5054365;28;20035;-61
2022/12/18 08:53:25;;;;;;;32.75;20.15;;;;;;;-5.98;100.00;102497.59;5036576;28;20059;-59
2022/12/18 08:55:51;;;;;;;35.58;21.75;;;;;;;-6.01;100.00;102470.91;5054440;28;20037;-60
2022/12/18 08:58:16;;;;;;;39.17;22.42;;;;;;;-5.88;100.00;102507.63;5019970;28;20037;-60
2022/12/18 09:00:42;;;;;;;36.80;22.98;;;;;;;-6.32;100.00;102414.34;5054618;28;20032;-60
2022/12/18 09:03:14;;;;;;;36.92;20.65;;;;;;;-6.13;100.00;102435.16;5054262;28;20044;-59
2022/12/18 09:05:39;;;;;;;38.58;20.60;;;;;;;-5.76;100.00;102500.63;5036083;28;20053;-61
2022/12/18 09:08:05;;;;;;;35.50;21.52;;;;;;;-5.70;100.00;102513.81;5019702;28;20079;-60
2022/12/18 09:10:31;;;;;;;35.88;21.23;;;;;;;-5.73;100.00;102492.22;5053893;28;20082;-60
2022/12/18 09:12:56;;;;;;;35.70;21.50;;;;;;;-5.64;100.00;102494.44;5054123;28;20431;-60
2022/12/18 09:15:22;;;;;;;34.92;20.48;;;;;;;-5.61;100.00;102480.13;5036120;28;20052;-60
2022/12/18 09:17:48;;;;;;;32.33;20.55;;;;;;;-5.56;100.00;102480.38;5053362;28;20400;-61
2022/12/18 09:20:13;;;;;;;34.08;20.25;;;;;;;-5.98;100.00;102378.81;5053894;28;20051;-60
2022/12/18 09:22:38;;;;;;;34.05;19.38;;;;;;;-5.51;100.00;102443.94;5052968;28;20132;-60
2022/12/18 09:25:07;;;;;;;34.17;19.90;;;;;;;-5.48;100.00;102435.50;5053935;28;20025;-60
2022/12/18 09:27:32;;;;;;;36.15;20.23;;;;;;;-5.45;100.00;102446.84;5053598;28;20036;-60
2022/12/18 09:29:57;;;;;;;34.63;21.23;;;;;;;-5.47;100.00;102430.50;5054092;28;20369;-59
2022/12/18 09:32:23;;;;;;;34.95;19.83;;;;;;;-5.34;100.00;102443.19;5035800;28;20033;-59
2022/12/18 09:34:48;;;;;;;33.75;20.00;;;;;;;-5.35;100.00;102430.31;5019350;28;20120;-60
2022/12/18 09:37:13;;;;;;;33.20;21.58;;;;;;;-5.29;100.00;102433.22;5052648;28;20069;-60
2022/12/18 09:39:39;;;;;;;37.13;23.13;;;;;;;-5.71;100.00;102350.44;5025144;28;20045;-60
2022/12/18 09:42:04;;;;;;;30.52;19.95;;;;;;;-5.39;100.00;102407.81;5012594;28;20026;-60
2022/12/18 09:44:36;;;;;;;34.55;21.13;;;;;;;-5.21;100.00;102434.53;5012530;28;20040;-61
2022/12/18 09:47:07;;;;;;;34.72;21.65;;;;;;;-5.11;100.00;102457.38;4995527;28;20041;-61
2022/12/18 09:49:37;;;;;;;33.60;20.75;;;;;;;-5.09;100.00;102460.88;5012139;28;20057;-59
2022/12/18 09:52:11;;;;;;;36.47;20.55;;;;;;;-5.59;100.00;102368.22;4995805;28;20044;-61
2022/12/18 09:54:41;;;;;;;30.48;20.10;;;;;;;-5.37;100.00;102389.13;5013475;28;20037;-59
2022/12/18 09:57:13;;;;;;;32.67;19.97;;;;;;;-4.94;100.00;102451.47;4996015;28;20389;-60
2022/12/18 09:59:39;;;;;;;31.58;19.63;;;;;;;-5.50;100.00;102337.94;4995749;28;20045;-60
2022/12/18 10:02:14;;;;;;;30.25;20.13;;;;;;;-4.98;100.00;102416.16;5013233;28;20029;-62
2022/12/18 10:04:39;;;;;;;32.92;19.25;;;;;;;-4.82;100.00;102448.69;4995928;28;20117;-60
2022/12/18 10:07:20;;;;;;;32.45;18.88;;;;;;;-4.76;100.00;102436.19;5013048;28;20120;-61
2022/12/18 10:10:03;;;;;;;28.45;19.10;;;;;;;-5.15;100.00;102363.88;4995773;28;20120;-60
2022/12/18 10:12:36;;;;;;;30.88;19.75;;;;;;;-4.84;100.00;102424.59;4979177;28;20120;-60
2022/12/18 10:15:15;;;;;;;30.27;19.45;;;;;;;-4.79;100.00;102412.91;4979198;28;20501;-60
2022/12/18 10:17:55;;;;;;;28.42;18.40;;;;;;;-4.75;100.00;102415.72;5013101;28;20112;-59
2022/12/18 10:20:30;;;;;;;34.63;18.88;;;;;;;-4.85;100.00;102381.75;5012409;28;20209;-59
2022/12/18 10:23:21;;;;;;;28.02;19.00;;;;;;;-4.59;100.00;102417.44;4979014;28;20066;-59
2022/12/18 10:25:55;;;;;;;29.08;18.58;;;;;;;-4.65;100.00;102402.59;5004629;28;20044;-60
2022/12/18 10:28:20;;;;;;;26.08;17.42;;;;;;;-4.57;100.00;102421.84;5012154;28;20109;-61
2022/12/18 10:30:45;;;;;;;25.50;18.13;;;;;;;-4.47;100.00;102415.53;5012620;28;20446;-61
2022/12/18 10:33:16;;;;;;;28.90;17.33;;;;;;;-4.42;100.00;102398.66;5012442;28;20084;-60
2022/12/18 10:35:43;;;;;;;26.42;16.95;;;;;;;-4.60;100.00;102354.00;4995253;28;20125;-59
2022/12/18 10:38:11;;;;;;;28.20;19.15;;;;;;;-4.32;100.00;102398.31;4994991;28;20472;-60
2022/12/18 10:40:57;;;;;;;27.55;17.85;;;;;;;-4.68;100.00;102337.31;5012487;28;20041;-60
2022/12/18 10:43:32;;;;;;;29.98;17.70;;;;;;;-4.20;100.00;102405.78;4994887;28;20473;-58
2022/12/18 10:46:09;;;;;;;32.55;18.70;;;;;;;-4.13;100.00;102403.63;5012380;28;20060;-59
2022/12/18 10:48:40;;;;;;;26.67;17.63;;;;;;;-4.07;100.00;102396.22;5012678;28;20417;-60
2022/12/18 10:51:07;;;;;;;22.90;15.73;;;;;;;-4.07;100.00;102406.50;5013017;28;20034;-59
2022/12/18 10:53:35;;;;;;;25.67;16.70;;;;;;;-4.52;100.00;102300.44;4994812;28;20029;-60
2022/12/18 10:56:02;;;;;;;29.30;17.48;;;;;;;-4.47;100.00;102299.00;4995225;28;20034;-60
2022/12/18 10:58:32;;;;;;;27.10;17.83;;;;;;;-3.94;100.00;102402.84;5015379;28;20135;-60
2022/12/18 11:01:19;;;;;;;23.77;16.73;;;;;;;-4.18;100.00;102353.66;5014850;28;20114;-60
2022/12/18 11:03:58;;;;;;;26.90;18.02;;;;;;;-4.29;100.00;102321.34;5010824;28;20033;-61
2022/12/18 11:06:24;;;;;;;27.88;17.55;;;;;;;-3.85;100.00;102405.91;5011313;28;20044;-60
2022/12/18 11:12:55;;;;;;;27.33;16.67;;;;;;;-3.72;100.00;102398.00;5030375;28;20028;-60